createdAt,value
2017-11-04T00:00:17.085Z,1014.26
2017-11-04T00:01:38.957Z,1014.23
2017-11-04T00:03:01.476Z,1014.22
2017-11-04T00:04:24.020Z,1014.18
2017-11-04T00:05:46.102Z,1014.2
2017-11-04T00:07:08.720Z,1014.21
2017-11-04T00:08:30.695Z,1014.15
2017-11-04T00:09:52.556Z,1014.15
2017-11-04T00:11:15.055Z,1014.16
2017-11-04T00:12:36.906Z,1014.14
2017-11-04T00:13:59.072Z,1014.12
2017-11-04T00:15:21.267Z,1014.13
2017-11-04T00:16:43.781Z,1014.09
2017-11-04T00:18:05.952Z,1014.1
2017-11-04T00:19:28.556Z,1014.08
2017-11-04T00:20:50.753Z,1014.04
2017-11-04T00:22:13.361Z,1014.02
2017-11-04T00:23:35.207Z,1014.02
2017-11-04T00:24:57.388Z,1013.99
2017-11-04T00:26:19.662Z,1013.97
2017-11-04T00:27:41.849Z,1013.96
2017-11-04T00:29:04.038Z,1014.01
2017-11-04T00:30:26.334Z,1013.94
2017-11-04T00:31:48.161Z,1013.93
2017-11-04T00:33:10.316Z,1013.96
2017-11-04T00:34:32.540Z,1013.97
2017-11-04T00:35:55.062Z,1013.95
2017-11-04T00:37:17.014Z,1013.98
2017-11-04T00:38:39.195Z,1013.99
2017-11-04T00:40:01.415Z,1013.99
2017-11-04T00:41:22.604Z,1013.95
2017-11-04T00:42:44.113Z,1013.9
2017-11-04T00:44:05.954Z,1013.98
2017-11-04T00:45:28.466Z,1013.93
2017-11-04T00:46:49.985Z,1013.88
2017-11-04T00:48:11.485Z,1013.92
2017-11-04T00:49:33.595Z,1013.93
2017-11-04T00:50:55.444Z,1013.9
2017-11-04T00:52:17.438Z,1013.89
2017-11-04T00:53:39.719Z,1013.86
2017-11-04T00:55:02.217Z,1013.88
2017-11-04T00:56:24.393Z,1013.87
2017-11-04T00:57:46.918Z,1013.92
2017-11-04T00:59:09.552Z,1013.93
2017-11-04T01:00:30.739Z,1013.93
2017-11-04T01:01:52.914Z,1013.94
2017-11-04T01:03:15.551Z,1013.85
2017-11-04T01:04:37.739Z,1013.91
2017-11-04T01:06:00.282Z,1013.96
2017-11-04T01:07:22.488Z,1013.9
2017-11-04T01:08:44.678Z,1013.86
2017-11-04T01:10:06.857Z,1013.86
2017-11-04T01:11:29.125Z,1013.88
2017-11-04T01:12:51.638Z,1013.85
2017-11-04T01:14:13.145Z,1013.82
2017-11-04T01:15:35.674Z,1013.8
2017-11-04T01:16:58.437Z,1013.81
2017-11-04T01:18:21.055Z,1013.82
2017-11-04T01:19:42.587Z,1013.82
2017-11-04T01:21:05.109Z,1013.78
2017-11-04T01:22:27.518Z,1013.81
2017-11-04T01:23:50.066Z,1013.8
2017-11-04T01:25:11.962Z,1013.83
2017-11-04T01:26:34.145Z,1013.79
2017-11-04T01:27:56.013Z,1013.8
2017-11-04T01:29:17.871Z,1013.78
2017-11-04T01:30:40.065Z,1013.8
2017-11-04T01:32:01.599Z,1013.75
2017-11-04T01:33:23.098Z,1013.78
2017-11-04T01:34:44.616Z,1013.75
2017-11-04T01:36:06.121Z,1013.68
2017-11-04T01:37:27.652Z,1013.66
2017-11-04T01:38:49.838Z,1013.67
2017-11-04T01:40:11.704Z,1013.64
2017-11-04T01:41:33.640Z,1013.65
2017-11-04T01:42:56.365Z,1013.61
2017-11-04T01:44:19.199Z,1013.56
2017-11-04T01:45:41.817Z,1013.57
2017-11-04T01:47:03.674Z,1013.56
2017-11-04T01:48:25.276Z,1013.51
2017-11-04T01:49:47.455Z,1013.53
2017-11-04T01:51:08.628Z,1013.5
2017-11-04T01:52:31.222Z,1013.49
2017-11-04T01:53:53.728Z,1013.46
2017-11-04T01:55:15.579Z,1013.48
2017-11-04T01:56:37.494Z,1013.44
2017-11-04T01:57:59.031Z,1013.41
2017-11-04T01:59:21.568Z,1013.39
2017-11-04T02:00:44.104Z,1013.4
2017-11-04T02:02:05.626Z,1013.37
2017-11-04T02:03:27.125Z,1013.37
2017-11-04T02:04:49.567Z,1013.36
2017-11-04T02:06:11.716Z,1013.31
2017-11-04T02:07:33.913Z,1013.3
2017-11-04T02:08:55.945Z,1013.28
2017-11-04T02:10:17.516Z,1013.29
2017-11-04T02:11:39.697Z,1013.28
2017-11-04T02:13:01.204Z,1013.25
2017-11-04T02:14:23.388Z,1013.27
2017-11-04T02:15:45.234Z,1013.24
2017-11-04T02:17:07.062Z,1013.21
2017-11-04T02:18:28.586Z,1013.21
2017-11-04T02:19:50.430Z,1013.16
2017-11-04T02:21:11.945Z,1013.11
2017-11-04T02:22:33.553Z,1013.08
2017-11-04T02:23:56.530Z,1013.12
2017-11-04T02:25:18.388Z,1013.09
2017-11-04T02:26:40.551Z,1013.1
2017-11-04T02:28:02.506Z,1013.07
2017-11-04T02:29:25.067Z,1013.07
2017-11-04T02:30:46.951Z,1013.03
2017-11-04T02:32:08.797Z,1013.02
2017-11-04T02:33:30.935Z,1013.01
2017-11-04T02:34:52.570Z,1012.98
2017-11-04T02:36:15.125Z,1013.02
2017-11-04T02:37:37.288Z,1012.96
2017-11-04T02:38:59.195Z,1012.93
2017-11-04T02:40:20.462Z,1012.91
2017-11-04T02:41:42.947Z,1012.93
2017-11-04T02:43:04.798Z,1012.88
2017-11-04T02:44:27.085Z,1012.86
2017-11-04T02:45:49.615Z,1012.83
2017-11-04T02:47:12.195Z,1012.88
2017-11-04T02:48:34.103Z,1012.86
2017-11-04T02:49:56.276Z,1012.94
2017-11-04T02:51:18.115Z,1012.92
2017-11-04T02:52:39.639Z,1012.92
2017-11-04T02:54:01.592Z,1012.87
2017-11-04T02:55:23.749Z,1012.9
2017-11-04T02:56:46.269Z,1012.84
2017-11-04T02:58:08.441Z,1012.85
2017-11-04T02:59:30.626Z,1012.8
2017-11-04T03:00:52.770Z,1012.83
2017-11-04T03:02:14.947Z,1012.83
2017-11-04T03:03:37.183Z,1012.83
2017-11-04T03:04:59.685Z,1012.8
2017-11-04T03:06:21.767Z,1012.81
2017-11-04T03:07:43.725Z,1012.78
2017-11-04T03:09:05.929Z,1012.78
2017-11-04T03:10:27.761Z,1012.77
2017-11-04T03:11:49.936Z,1012.77
2017-11-04T03:13:11.839Z,1012.78
2017-11-04T03:14:33.670Z,1012.74
2017-11-04T03:15:55.970Z,1012.74
2017-11-04T03:17:18.570Z,1012.68
2017-11-04T03:18:40.400Z,1012.73
2017-11-04T03:20:02.923Z,1012.69
2017-11-04T03:21:24.782Z,1012.73
2017-11-04T03:22:47.213Z,1012.76
2017-11-04T03:24:09.385Z,1012.73
2017-11-04T03:25:31.598Z,1012.73
2017-11-04T03:26:53.194Z,1012.7
2017-11-04T03:28:15.989Z,1012.66
2017-11-04T03:29:37.886Z,1012.7
2017-11-04T03:31:00.409Z,1012.67
2017-11-04T03:32:21.930Z,1012.68
2017-11-04T03:33:44.106Z,1012.67
2017-11-04T03:35:06.286Z,1012.65
2017-11-04T03:36:28.476Z,1012.65
2017-11-04T03:37:50.339Z,1012.65
2017-11-04T03:39:11.853Z,1012.69
2017-11-04T03:40:33.719Z,1012.7
2017-11-04T03:41:55.894Z,1012.63
2017-11-04T03:43:17.392Z,1012.58
2017-11-04T03:44:39.223Z,1012.57
2017-11-04T03:46:01.777Z,1012.58
2017-11-04T03:47:23.936Z,1012.55
2017-11-04T03:48:46.167Z,1012.56
2017-11-04T03:50:08.765Z,1012.5
2017-11-04T03:51:30.953Z,1012.49
2017-11-04T03:52:52.465Z,1012.45
2017-11-04T03:54:15.081Z,1012.45
2017-11-04T03:55:36.937Z,1012.47
2017-11-04T03:56:59.124Z,1012.4
2017-11-04T03:58:20.411Z,1012.4
2017-11-04T03:59:42.576Z,1012.38
2017-11-04T04:01:04.754Z,1012.35
2017-11-04T04:02:26.986Z,1012.32
2017-11-04T04:03:49.257Z,1012.33
2017-11-04T04:05:11.447Z,1012.35
2017-11-04T04:06:33.626Z,1012.37
2017-11-04T04:07:55.270Z,1012.33
2017-11-04T04:09:16.763Z,1012.33
2017-11-04T04:10:38.291Z,1012.32
2017-11-04T04:11:59.588Z,1012.29
2017-11-04T04:13:21.838Z,1012.26
2017-11-04T04:14:43.673Z,1012.26
2017-11-04T04:16:05.617Z,1012.24
2017-11-04T04:17:27.766Z,1012.24
2017-11-04T04:18:49.610Z,1012.25
2017-11-04T04:20:11.435Z,1012.21
2017-11-04T04:21:32.954Z,1012.21
2017-11-04T04:22:54.847Z,1012.19
2017-11-04T04:24:17.390Z,1012.16
2017-11-04T04:25:39.235Z,1012.2
2017-11-04T04:27:01.467Z,1012.2
2017-11-04T04:28:23.646Z,1012.14
2017-11-04T04:29:45.829Z,1012.12
2017-11-04T04:31:07.657Z,1012.06
2017-11-04T04:32:29.508Z,1012.05
2017-11-04T04:33:52.070Z,1012.07
2017-11-04T04:35:13.565Z,1012.05
2017-11-04T04:36:35.418Z,1012.08
2017-11-04T04:37:57.949Z,1012.05
2017-11-04T04:39:20.705Z,1012.03
2017-11-04T04:40:42.873Z,1011.99
2017-11-04T04:42:04.716Z,1011.99
2017-11-04T04:43:26.226Z,1012.03
2017-11-04T04:44:49.035Z,1011.99
2017-11-04T04:46:18.438Z,1011.95
2017-11-04T04:47:40.952Z,1011.96
2017-11-04T04:49:03.166Z,1011.95
2017-11-04T04:50:25.361Z,1011.97
2017-11-04T04:51:47.535Z,1011.96
2017-11-04T04:53:09.416Z,1011.9
2017-11-04T04:54:31.256Z,1011.92
2017-11-04T04:55:54.061Z,1011.92
2017-11-04T04:57:16.254Z,1011.94
2017-11-04T04:58:38.448Z,1011.95
2017-11-04T05:00:00.376Z,1011.96
2017-11-04T05:01:22.519Z,1011.97
2017-11-04T05:02:44.707Z,1011.93
2017-11-04T05:04:06.626Z,1011.91
2017-11-04T05:05:28.814Z,1011.9
2017-11-04T05:06:50.584Z,1011.87
2017-11-04T05:08:12.886Z,1011.83
2017-11-04T05:09:34.797Z,1011.82
2017-11-04T05:10:56.996Z,1011.83
2017-11-04T05:12:18.919Z,1011.82
2017-11-04T05:13:41.120Z,1011.78
2017-11-04T05:15:03.611Z,1011.76
2017-11-04T05:16:25.491Z,1011.76
2017-11-04T05:17:47.960Z,1011.75
2017-11-04T05:19:09.857Z,1011.73
2017-11-04T05:20:31.474Z,1011.73
2017-11-04T05:21:53.335Z,1011.69
2017-11-04T05:23:16.107Z,1011.73
2017-11-04T05:24:38.613Z,1011.77
2017-11-04T05:26:00.774Z,1011.75
2017-11-04T05:27:22.612Z,1011.77
2017-11-04T05:28:44.798Z,1011.78
2017-11-04T05:30:06.008Z,1011.81
2017-11-04T05:31:27.517Z,1011.81
2017-11-04T05:32:49.704Z,1011.85
2017-11-04T05:34:10.883Z,1011.83
2017-11-04T05:35:33.052Z,1011.84
2017-11-04T05:36:54.673Z,1011.81
2017-11-04T05:38:16.548Z,1011.78
2017-11-04T05:39:39.192Z,1011.82
2017-11-04T05:41:01.042Z,1011.81
2017-11-04T05:42:22.262Z,1011.77
2017-11-04T05:43:44.746Z,1011.78
2017-11-04T05:45:06.916Z,1011.78
2017-11-04T05:46:28.805Z,1011.79
2017-11-04T05:47:51.081Z,1011.75
2017-11-04T05:49:13.582Z,1011.79
2017-11-04T05:50:35.802Z,1011.79
2017-11-04T05:51:58.098Z,1011.77
2017-11-04T05:53:20.266Z,1011.76
2017-11-04T05:54:41.437Z,1011.77
2017-11-04T05:56:03.704Z,1011.75
2017-11-04T05:57:26.008Z,1011.75
2017-11-04T05:58:48.189Z,1011.78
2017-11-04T06:00:10.701Z,1011.74
2017-11-04T06:01:32.852Z,1011.71
2017-11-04T06:02:55.038Z,1011.7
2017-11-04T06:04:17.596Z,1011.68
2017-11-04T06:05:39.434Z,1011.64
2017-11-04T06:07:01.577Z,1011.65
2017-11-04T06:08:23.755Z,1011.65
2017-11-04T06:09:45.392Z,1011.64
2017-11-04T06:11:07.284Z,1011.68
2017-11-04T06:12:29.435Z,1011.69
2017-11-04T06:13:50.978Z,1011.7
2017-11-04T06:15:13.158Z,1011.67
2017-11-04T06:16:35.782Z,1011.68
2017-11-04T06:17:56.952Z,1011.7
2017-11-04T06:19:18.793Z,1011.75
2017-11-04T06:20:40.640Z,1011.74
2017-11-04T06:22:02.802Z,1011.67
2017-11-04T06:23:24.676Z,1011.68
2017-11-04T06:24:46.531Z,1011.67
2017-11-04T06:26:08.697Z,1011.62
2017-11-04T06:27:31.201Z,1011.7
2017-11-04T06:28:53.691Z,1011.64
2017-11-04T06:30:15.917Z,1011.65
2017-11-04T06:31:38.197Z,1011.63
2017-11-04T06:33:00.724Z,1011.57
2017-11-04T06:34:23.162Z,1011.58
2017-11-04T06:35:45.686Z,1011.59
2017-11-04T06:37:07.875Z,1011.56
2017-11-04T06:38:29.378Z,1011.54
2017-11-04T06:39:51.838Z,1011.58
2017-11-04T06:41:14.002Z,1011.5
2017-11-04T06:42:35.526Z,1011.49
2017-11-04T06:43:57.066Z,1011.49
2017-11-04T06:45:19.493Z,1011.49
2017-11-04T06:46:42.008Z,1011.51
2017-11-04T06:48:03.867Z,1011.48
2017-11-04T06:49:26.037Z,1011.5
2017-11-04T06:50:48.516Z,1011.47
2017-11-04T06:52:10.804Z,1011.46
2017-11-04T06:53:32.984Z,1011.56
2017-11-04T06:54:55.177Z,1011.56
2017-11-04T06:56:17.686Z,1011.53
2017-11-04T06:57:39.855Z,1011.56
2017-11-04T06:59:01.402Z,1011.57
2017-11-04T07:00:23.582Z,1011.54
2017-11-04T07:01:46.092Z,1011.49
2017-11-04T07:03:08.599Z,1011.44
2017-11-04T07:04:30.798Z,1011.41
2017-11-04T07:05:53.326Z,1011.44
2017-11-04T07:07:16.219Z,1011.39
2017-11-04T07:08:38.070Z,1011.42
2017-11-04T07:09:59.986Z,1011.39
2017-11-04T07:11:21.506Z,1011.38
2017-11-04T07:12:44.144Z,1011.42
2017-11-04T07:14:06.722Z,1011.4
2017-11-04T07:15:28.551Z,1011.46
2017-11-04T07:16:50.405Z,1011.48
2017-11-04T07:18:12.165Z,1011.42
2017-11-04T07:19:33.713Z,1011.41
2017-11-04T07:20:55.898Z,1011.4
2017-11-04T07:22:17.740Z,1011.37
2017-11-04T07:23:40.690Z,1011.39
2017-11-04T07:25:02.532Z,1011.39
2017-11-04T07:26:25.087Z,1011.43
2017-11-04T07:27:46.596Z,1011.4
2017-11-04T07:29:08.550Z,1011.43
2017-11-04T07:30:31.060Z,1011.44
2017-11-04T07:31:53.236Z,1011.38
2017-11-04T07:33:14.762Z,1011.37
2017-11-04T07:34:37.603Z,1011.38
2017-11-04T07:35:59.437Z,1011.34
2017-11-04T07:37:21.638Z,1011.37
2017-11-04T07:38:43.832Z,1011.38
2017-11-04T07:40:06.272Z,1011.36
2017-11-04T07:41:28.526Z,1011.37
2017-11-04T07:42:50.711Z,1011.39
2017-11-04T07:44:12.920Z,1011.4
2017-11-04T07:45:34.436Z,1011.41
2017-11-04T07:46:56.949Z,1011.35
2017-11-04T07:48:19.186Z,1011.37
2017-11-04T07:49:41.044Z,1011.33
2017-11-04T07:51:03.843Z,1011.37
2017-11-04T07:52:26.386Z,1011.34
2017-11-04T07:53:48.559Z,1011.41
2017-11-04T07:55:10.415Z,1011.39
2017-11-04T07:56:32.839Z,1011.34
2017-11-04T07:57:55.375Z,1011.36
2017-11-04T07:59:17.216Z,1011.33
2017-11-04T08:00:39.559Z,1011.3
2017-11-04T08:02:01.750Z,1011.26
2017-11-04T08:03:23.597Z,1011.26
2017-11-04T08:04:45.826Z,1011.25
2017-11-04T08:06:07.988Z,1011.24
2017-11-04T08:07:30.193Z,1011.19
2017-11-04T08:08:52.043Z,1011.12
2017-11-04T08:10:14.234Z,1011.12
2017-11-04T08:11:36.097Z,1011.1
2017-11-04T08:12:58.283Z,1011.06
2017-11-04T08:14:20.468Z,1011.05
2017-11-04T08:15:42.703Z,1011.06
2017-11-04T08:17:04.955Z,1011.08
2017-11-04T08:18:27.466Z,1011.08
2017-11-04T08:19:49.984Z,1011.05
2017-11-04T08:21:12.284Z,1011.06
2017-11-04T08:22:34.163Z,1011.02
2017-11-04T08:23:56.515Z,1010.99
2017-11-04T08:25:18.417Z,1010.93
2017-11-04T08:26:40.915Z,1010.97
2017-11-04T08:28:03.225Z,1010.94
2017-11-04T08:29:25.466Z,1010.9
2017-11-04T08:30:47.649Z,1010.87
2017-11-04T08:32:09.476Z,1010.85
2017-11-04T08:33:30.994Z,1010.77
2017-11-04T08:34:52.875Z,1010.78
2017-11-04T08:36:14.706Z,1010.74
2017-11-04T08:37:36.691Z,1010.72
2017-11-04T08:38:59.240Z,1010.67
2017-11-04T08:40:21.435Z,1010.71
2017-11-04T08:41:43.284Z,1010.71
2017-11-04T08:43:05.492Z,1010.7
2017-11-04T08:44:27.116Z,1010.73
2017-11-04T08:45:49.656Z,1010.72
2017-11-04T08:47:12.276Z,1010.71
2017-11-04T08:48:34.802Z,1010.71
2017-11-04T08:49:57.415Z,1010.69
2017-11-04T08:51:19.573Z,1010.65
2017-11-04T08:52:41.485Z,1010.61
2017-11-04T08:54:03.778Z,1010.61
2017-11-04T08:55:26.002Z,1010.56
2017-11-04T08:56:48.168Z,1010.52
2017-11-04T08:58:10.336Z,1010.5
2017-11-04T08:59:32.528Z,1010.51
2017-11-04T09:00:54.787Z,1010.57
2017-11-04T09:02:16.320Z,1010.54
2017-11-04T09:03:38.524Z,1010.5
2017-11-04T09:05:00.712Z,1010.5
2017-11-04T09:06:23.258Z,1010.43
2017-11-04T09:07:45.955Z,1010.41
2017-11-04T09:09:07.503Z,1010.39
2017-11-04T09:10:30.083Z,1010.4
2017-11-04T09:11:52.716Z,1010.38
2017-11-04T09:13:15.000Z,1010.39
2017-11-04T09:14:37.275Z,1010.37
2017-11-04T09:15:59.801Z,1010.39
2017-11-04T09:17:21.975Z,1010.42
2017-11-04T09:18:44.766Z,1010.43
2017-11-04T09:20:07.308Z,1010.4
2017-11-04T09:21:29.840Z,1010.39
2017-11-04T09:22:52.024Z,1010.35
2017-11-04T09:24:14.656Z,1010.36
2017-11-04T09:25:37.213Z,1010.35
2017-11-04T09:26:59.401Z,1010.37
2017-11-04T09:28:21.939Z,1010.36
2017-11-04T09:29:44.213Z,1010.37
2017-11-04T09:31:06.463Z,1010.35
2017-11-04T09:32:28.667Z,1010.31
2017-11-04T09:33:50.855Z,1010.31
2017-11-04T09:35:13.056Z,1010.31
2017-11-04T09:36:35.352Z,1010.27
2017-11-04T09:37:57.875Z,1010.25
2017-11-04T09:39:20.070Z,1010.2
2017-11-04T09:40:42.604Z,1010.19
2017-11-04T09:42:05.185Z,1010.22
2017-11-04T09:43:27.438Z,1010.25
2017-11-04T09:44:49.968Z,1010.2
2017-11-04T09:46:12.496Z,1010.21
2017-11-04T09:47:35.067Z,1010.22
2017-11-04T09:48:57.285Z,1010.23
2017-11-04T09:50:19.474Z,1010.19
2017-11-04T09:51:42.229Z,1010.15
2017-11-04T09:53:04.752Z,1010.13
2017-11-04T09:54:26.940Z,1010.2
2017-11-04T09:55:49.476Z,1010.13
2017-11-04T09:57:12.060Z,1010.1
2017-11-04T09:58:34.416Z,1010.09
2017-11-04T09:59:56.705Z,1010.08
2017-11-04T10:01:18.633Z,1010.1
2017-11-04T10:02:40.864Z,1010.07
2017-11-04T10:04:02.736Z,1010.07
2017-11-04T10:05:25.041Z,1010.06
2017-11-04T10:06:47.264Z,1009.96
2017-11-04T10:08:09.492Z,1009.95
2017-11-04T10:09:31.735Z,1009.92
2017-11-04T10:10:54.258Z,1009.84
2017-11-04T10:12:16.105Z,1009.8
2017-11-04T10:13:38.395Z,1009.77
2017-11-04T10:15:00.593Z,1009.75
2017-11-04T10:16:22.472Z,1009.72
2017-11-04T10:17:44.846Z,1009.68
2017-11-04T10:19:07.377Z,1009.68
2017-11-04T10:20:29.614Z,1009.72
2017-11-04T10:21:52.245Z,1009.64
2017-11-04T10:23:14.447Z,1009.62
2017-11-04T10:24:36.997Z,1009.62
2017-11-04T10:25:59.568Z,1009.62
2017-11-04T10:27:22.089Z,1009.6
2017-11-04T10:28:43.967Z,1009.54
2017-11-04T10:30:06.151Z,1009.55
2017-11-04T10:31:28.812Z,1009.52
2017-11-04T10:32:51.007Z,1009.55
2017-11-04T10:34:13.208Z,1009.53
2017-11-04T10:35:35.147Z,1009.51
2017-11-04T10:36:57.679Z,1009.52
2017-11-04T10:38:19.875Z,1009.49
2017-11-04T10:39:41.746Z,1009.47
2017-11-04T10:41:03.679Z,1009.45
2017-11-04T10:42:26.209Z,1009.4
2017-11-04T10:43:48.410Z,1009.4
2017-11-04T10:45:10.777Z,1009.38
2017-11-04T10:46:33.323Z,1009.37
2017-11-04T10:47:55.897Z,1009.4
2017-11-04T10:49:18.210Z,1009.41
2017-11-04T10:50:40.746Z,1009.38
2017-11-04T10:52:03.281Z,1009.37
2017-11-04T10:53:25.493Z,1009.33
2017-11-04T10:54:47.715Z,1009.27
2017-11-04T10:56:10.249Z,1009.24
2017-11-04T10:57:32.448Z,1009.24
2017-11-04T10:58:54.324Z,1009.2
2017-11-04T11:00:16.185Z,1009.2
2017-11-04T11:01:38.726Z,1009.17
2017-11-04T11:03:01.372Z,1009.18
2017-11-04T11:04:23.347Z,1009.21
2017-11-04T11:05:45.297Z,1009.18
2017-11-04T11:07:07.833Z,1009.16
2017-11-04T11:08:29.926Z,1009.06
2017-11-04T11:09:52.475Z,1009.07
2017-11-04T11:11:15.037Z,1009.07
2017-11-04T11:12:36.901Z,1009.01
2017-11-04T11:13:58.758Z,1008.96
2017-11-04T11:15:21.059Z,1008.95
2017-11-04T11:16:43.268Z,1008.94
2017-11-04T11:18:04.894Z,1008.92
2017-11-04T11:19:27.099Z,1008.88
2017-11-04T11:20:48.964Z,1008.85
2017-11-04T11:22:11.535Z,1008.83
2017-11-04T11:23:34.063Z,1008.82
2017-11-04T11:24:56.312Z,1008.78
2017-11-04T11:26:18.511Z,1008.77
2017-11-04T11:27:40.690Z,1008.79
2017-11-04T11:29:03.264Z,1008.73
2017-11-04T11:30:24.781Z,1008.69
2017-11-04T11:31:47.363Z,1008.65
2017-11-04T11:33:09.562Z,1008.6
2017-11-04T11:34:31.763Z,1008.55
2017-11-04T11:35:53.624Z,1008.5
2017-11-04T11:37:15.625Z,1008.46
2017-11-04T11:38:37.813Z,1008.48
2017-11-04T11:39:59.349Z,1008.42
2017-11-04T11:41:21.191Z,1008.43
2017-11-04T11:42:43.077Z,1008.41
2017-11-04T11:44:04.942Z,1008.37
2017-11-04T11:45:26.832Z,1008.36
2017-11-04T11:46:49.025Z,1008.38
2017-11-04T11:48:10.213Z,1008.37
2017-11-04T11:49:32.481Z,1008.35
2017-11-04T11:50:54.715Z,1008.29
2017-11-04T11:52:15.633Z,1008.23
2017-11-04T11:53:37.832Z,1008.22
2017-11-04T11:55:00.365Z,1008.23
2017-11-04T11:56:21.965Z,1008.22
2017-11-04T11:57:44.610Z,1008.22
2017-11-04T11:59:06.271Z,1008.19
2017-11-04T12:00:28.923Z,1008.18
2017-11-04T12:01:50.555Z,1008.17
2017-11-04T12:03:13.086Z,1008.15
2017-11-04T12:04:35.263Z,1008.1
2017-11-04T12:05:56.464Z,1008.04
2017-11-04T12:07:18.996Z,1007.98
2017-11-04T12:08:41.175Z,1007.99
2017-11-04T12:10:03.366Z,1007.92
2017-11-04T12:11:25.905Z,1007.94
2017-11-04T12:12:48.026Z,1007.9
2017-11-04T12:14:10.954Z,1007.91
2017-11-04T12:15:33.176Z,1007.87
2017-11-04T12:16:55.725Z,1007.82
2017-11-04T12:18:18.005Z,1007.78
2017-11-04T12:19:40.204Z,1007.74
2017-11-04T12:21:02.409Z,1007.74
2017-11-04T12:22:23.956Z,1007.74
2017-11-04T12:23:46.164Z,1007.79
2017-11-04T12:25:08.675Z,1007.75
2017-11-04T12:26:31.293Z,1007.75
2017-11-04T12:27:53.814Z,1007.76
2017-11-04T12:29:16.393Z,1007.72
2017-11-04T12:30:38.531Z,1007.73
2017-11-04T12:32:01.116Z,1007.71
2017-11-04T12:33:23.672Z,1007.7
2017-11-04T12:34:45.543Z,1007.71
2017-11-04T12:36:07.756Z,1007.75
2017-11-04T12:37:30.304Z,1007.73
2017-11-04T12:38:52.919Z,1007.68
2017-11-04T12:40:15.223Z,1007.67
2017-11-04T12:41:37.760Z,1007.62
2017-11-04T12:42:59.606Z,1007.62
2017-11-04T12:44:22.250Z,1007.59
2017-11-04T12:45:43.786Z,1007.58
2017-11-04T12:47:05.969Z,1007.54
2017-11-04T12:48:28.504Z,1007.51
2017-11-04T12:49:50.395Z,1007.5
2017-11-04T12:51:12.602Z,1007.46
2017-11-04T12:52:35.134Z,1007.46
2017-11-04T12:53:57.300Z,1007.51
2017-11-04T12:55:19.493Z,1007.5
2017-11-04T12:56:41.014Z,1007.45
2017-11-04T12:58:03.213Z,1007.42
2017-11-04T12:59:25.406Z,1007.37
2017-11-04T13:00:47.741Z,1007.43
2017-11-04T13:02:09.908Z,1007.39
2017-11-04T13:03:31.802Z,1007.36
2017-11-04T13:04:53.745Z,1007.31
2017-11-04T13:06:16.144Z,1007.29
2017-11-04T13:07:37.992Z,1007.36
2017-11-04T13:09:00.524Z,1007.35
2017-11-04T13:10:23.049Z,1007.39
2017-11-04T13:11:45.261Z,1007.36
2017-11-04T13:13:07.805Z,1007.27
2017-11-04T13:14:30.343Z,1007.34
2017-11-04T13:15:52.189Z,1007.32
2017-11-04T13:17:14.830Z,1007.35
2017-11-04T13:18:37.053Z,1007.31
2017-11-04T13:19:58.699Z,1007.34
2017-11-04T13:21:21.224Z,1007.28
2017-11-04T13:22:43.125Z,1007.31
2017-11-04T13:24:05.361Z,1007.26
2017-11-04T13:25:27.575Z,1007.23
2017-11-04T13:26:49.111Z,1007.22
2017-11-04T13:28:11.622Z,1007.21
2017-11-04T13:29:33.815Z,1007.2
2017-11-04T13:30:56.094Z,1007.18
2017-11-04T13:32:18.304Z,1007.16
2017-11-04T13:33:40.498Z,1007.17
2017-11-04T13:35:02.725Z,1007.15
2017-11-04T13:36:25.257Z,1007.15
2017-11-04T13:37:47.766Z,1007.18
2017-11-04T13:39:09.674Z,1007.21
2017-11-04T13:40:32.173Z,1007.14
2017-11-04T13:41:54.046Z,1007.12
2017-11-04T13:43:15.912Z,1007.1
2017-11-04T13:44:38.437Z,1007.15
2017-11-04T13:46:00.962Z,1007.14
2017-11-04T13:47:23.137Z,1007.13
2017-11-04T13:48:45.311Z,1007.1
2017-11-04T13:50:07.495Z,1007.1
2017-11-04T13:51:29.695Z,1007.09
2017-11-04T13:52:51.894Z,1007.04
2017-11-04T13:54:13.786Z,1006.93
2017-11-04T13:55:35.743Z,1006.95
2017-11-04T13:56:57.264Z,1006.85
2017-11-04T13:58:19.080Z,1006.84
2017-11-04T13:59:40.935Z,1006.84
2017-11-04T14:01:03.174Z,1006.85
2017-11-04T14:02:25.705Z,1006.83
2017-11-04T14:03:48.324Z,1006.84
2017-11-04T14:05:10.852Z,1006.76
2017-11-04T14:06:33.057Z,1006.78
2017-11-04T14:07:55.582Z,1006.75
2017-11-04T14:09:18.012Z,1006.79
2017-11-04T14:10:40.573Z,1006.78
2017-11-04T14:12:03.105Z,1006.78
2017-11-04T14:13:24.944Z,1006.71
2017-11-04T14:14:47.236Z,1006.63
2017-11-04T14:16:09.865Z,1006.57
2017-11-04T14:17:32.039Z,1006.52
2017-11-04T14:18:54.228Z,1006.51
2017-11-04T14:20:16.574Z,1006.49
2017-11-04T14:21:38.800Z,1006.47
2017-11-04T14:23:01.004Z,1006.52
2017-11-04T14:24:23.631Z,1006.47
2017-11-04T14:25:45.944Z,1006.46
2017-11-04T14:27:07.795Z,1006.44
2017-11-04T14:28:30.384Z,1006.45
2017-11-04T14:29:52.582Z,1006.5
2017-11-04T14:31:14.457Z,1006.44
2017-11-04T14:32:36.693Z,1006.4
2017-11-04T14:33:58.894Z,1006.36
2017-11-04T14:35:21.220Z,1006.38
2017-11-04T14:36:43.411Z,1006.36
2017-11-04T14:38:05.710Z,1006.33
2017-11-04T14:39:28.223Z,1006.29
2017-11-04T14:40:50.420Z,1006.2
2017-11-04T14:42:12.634Z,1006.2
2017-11-04T14:43:34.174Z,1006.18
2017-11-04T14:44:56.395Z,1006.13
2017-11-04T14:46:18.596Z,1006.12
2017-11-04T14:47:40.791Z,1006.13
2017-11-04T14:49:03.339Z,1006.09
2017-11-04T14:50:25.545Z,1006.18
2017-11-04T14:51:48.054Z,1006.17
2017-11-04T14:53:10.360Z,1006.13
2017-11-04T14:54:32.965Z,1006.1
2017-11-04T14:55:54.485Z,1006.13
2017-11-04T14:57:16.699Z,1006.14
2017-11-04T14:58:38.564Z,1006.11
2017-11-04T15:00:00.118Z,1006
2017-11-04T15:01:22.651Z,1005.99
2017-11-04T15:02:45.214Z,1006.04
2017-11-04T15:04:07.421Z,1005.98
2017-11-04T15:05:30.087Z,1005.94
2017-11-04T15:06:52.733Z,1005.87
2017-11-04T15:08:15.265Z,1005.93
2017-11-04T15:09:37.553Z,1005.89
2017-11-04T15:10:59.844Z,1005.9
2017-11-04T15:12:22.456Z,1005.92
2017-11-04T15:13:44.326Z,1005.93
2017-11-04T15:15:06.880Z,1005.87
2017-11-04T15:16:28.736Z,1005.87
2017-11-04T15:17:50.937Z,1005.95
2017-11-04T15:19:13.134Z,1005.82
2017-11-04T15:20:35.664Z,1005.87
2017-11-04T15:21:57.843Z,1005.84
2017-11-04T15:23:19.705Z,1005.75
2017-11-04T15:24:42.253Z,1005.73
2017-11-04T15:26:04.549Z,1005.72
2017-11-04T15:27:26.744Z,1005.67
2017-11-04T15:28:48.933Z,1005.69
2017-11-04T15:30:11.155Z,1005.69
2017-11-04T15:31:33.353Z,1005.74
2017-11-04T15:32:55.944Z,1005.83
2017-11-04T15:34:18.144Z,1005.97
2017-11-04T15:35:39.667Z,1005.89
2017-11-04T15:37:01.865Z,1005.83
2017-11-04T15:38:24.084Z,1005.77
2017-11-04T15:39:46.263Z,1005.76
2017-11-04T15:41:08.821Z,1005.72
2017-11-04T15:42:31.115Z,1005.73
2017-11-04T15:43:52.634Z,1005.67
2017-11-04T15:45:14.584Z,1005.55
2017-11-04T15:46:36.538Z,1005.63
2017-11-04T15:47:59.027Z,1005.68
2017-11-04T15:49:21.574Z,1005.7
2017-11-04T15:50:43.783Z,1005.74
2017-11-04T15:52:05.647Z,1005.77
2017-11-04T15:53:27.825Z,1005.75
2017-11-04T15:54:50.085Z,1005.65
2017-11-04T15:56:12.747Z,1005.67
2017-11-04T15:57:34.955Z,1005.72
2017-11-04T15:58:56.925Z,1005.64
2017-11-04T16:00:19.154Z,1005.67
2017-11-04T16:01:40.674Z,1005.64
2017-11-04T16:03:03.249Z,1005.66
2017-11-04T16:04:25.815Z,1005.58
2017-11-04T16:05:48.014Z,1005.57
2017-11-04T16:07:10.597Z,1005.57
2017-11-04T16:08:33.257Z,1005.53
2017-11-04T16:09:55.494Z,1005.42
2017-11-04T16:11:17.700Z,1005.47
2017-11-04T16:12:39.598Z,1005.56
2017-11-04T16:14:02.093Z,1005.58
2017-11-04T16:15:24.452Z,1005.54
2017-11-04T16:16:46.323Z,1005.52
2017-11-04T16:18:08.504Z,1005.52
2017-11-04T16:19:30.693Z,1005.55
2017-11-04T16:20:51.553Z,1005.58
2017-11-04T16:22:14.088Z,1005.54
2017-11-04T16:23:36.382Z,1005.57
2017-11-04T16:24:58.765Z,1005.53
2017-11-04T16:26:20.982Z,1005.48
2017-11-04T16:27:43.197Z,1005.54
2017-11-04T16:29:05.742Z,1005.54
2017-11-04T16:30:27.607Z,1005.51
2017-11-04T16:31:49.477Z,1005.62
2017-11-04T16:33:12.011Z,1005.58
2017-11-04T16:34:34.574Z,1005.56
2017-11-04T16:35:56.763Z,1005.53
2017-11-04T16:37:18.986Z,1005.55